Buckley Hill, United Kingdom
Current Conditions -  °F | °C
As of 8:20 AM on Saturday 20 Dec 2014 (Local Time) from EGGP Reporting Station
Scattered Clouds Scattered Clouds  
Wind Chill:   Ceiling: Unl
Heat Index:   Visibility: 6mi
Dew Point:   Wind: 32mph
Humidity: 81%   Direction: 280°W
Pressure: 30.12"   Gusts: 48mph
Location:  53.48°N, 2.99°W
Report Text: EGGP 200820Z 28028G42KT 9999 FEW023 SCT035 08/05 Q1020
Loading
Personal Weather Stations






























Interactive Weather Map New forecast layout! Learn more

10-Day Weather Forecast

Advertisements
Track Severe Weather on mobile